Time;durP1;ratioP1;P1;durP2;ratioP2;P2;SDS_P1;SDS_P2;PMS_P1;PMS_P2;Temp;Humidity;BMP_temperature;BMP_pressure;BME280_temperature;BME280_humidity;BME280_pressure;Samples;Min_cycle;Max_cycle;Signal;HPM_P1;HPM_P2
2022/12/09 00:01:05;;;;;;;36.13;19.42;;;;;;;0.59;94.58;100515.72;4926983;29;20054;-39
2022/12/09 00:03:32;;;;;;;38.03;21.77;;;;;;;0.61;94.67;100508.91;4929830;29;20922;-39
2022/12/09 00:06:17;;;;;;;37.38;20.95;;;;;;;0.63;94.28;100505.09;4930375;29;20546;-40
2022/12/09 00:08:44;;;;;;;42.20;20.92;;;;;;;0.64;94.80;100498.56;4930825;29;20062;-42
2022/12/09 00:11:11;;;;;;;35.35;18.58;;;;;;;0.60;94.68;100499.13;4930928;29;20058;-40
2022/12/09 00:13:38;;;;;;;32.80;18.00;;;;;;;0.57;94.72;100501.59;4930010;29;20119;-39
2022/12/09 00:16:10;;;;;;;30.98;16.98;;;;;;;0.54;94.73;100502.97;4930988;29;20055;-39
2022/12/09 00:18:38;;;;;;;38.70;20.42;;;;;;;0.53;94.92;100514.97;4930966;29;20052;-40
2022/12/09 00:21:28;;;;;;;43.58;21.20;;;;;;;0.53;94.80;100506.78;4929493;29;20059;-39
2022/12/09 00:23:56;;;;;;;34.90;17.60;;;;;;;0.52;95.01;100504.34;4929948;29;20055;-39
2022/12/09 00:26:25;;;;;;;39.17;18.02;;;;;;;0.49;95.11;100502.19;4928893;29;20093;-39
2022/12/09 00:28:53;;;;;;;34.60;18.45;;;;;;;0.44;94.87;100497.63;4930040;29;20048;-40
2022/12/09 00:31:23;;;;;;;34.17;16.85;;;;;;;0.41;94.95;100498.19;4929016;29;20054;-39
2022/12/09 00:33:51;;;;;;;37.55;17.73;;;;;;;0.42;95.36;100499.00;4928456;29;20481;-40
2022/12/09 00:36:20;;;;;;;24.42;14.98;;;;;;;0.41;95.39;100503.63;4929489;29;20060;-43
2022/12/09 00:38:47;;;;;;;28.83;15.38;;;;;;;0.44;95.17;100503.06;4932329;29;20066;-41
2022/12/09 00:41:15;;;;;;;29.90;13.85;;;;;;;0.45;95.24;100512.84;4935175;29;20098;-40
2022/12/09 00:43:43;;;;;;;29.45;13.77;;;;;;;0.46;95.65;100492.69;4932983;29;20370;-39
2022/12/09 00:46:11;;;;;;;26.05;14.63;;;;;;;0.48;95.16;100485.03;4930584;29;20173;-39
2022/12/09 00:48:44;;;;;;;26.67;14.02;;;;;;;0.49;95.32;100489.41;4929723;29;20421;-39
2022/12/09 00:51:17;;;;;;;26.15;16.73;;;;;;;0.49;95.39;100494.84;4930341;29;20040;-39
2022/12/09 00:53:44;;;;;;;25.65;15.23;;;;;;;0.52;95.82;100505.19;4929218;29;20044;-39
2022/12/09 00:56:11;;;;;;;22.35;13.77;;;;;;;0.53;95.86;100495.09;4929772;29;20059;-41
2022/12/09 00:58:38;;;;;;;25.38;14.43;;;;;;;0.52;96.04;100494.28;4930376;29;20055;-43
2022/12/09 01:01:04;;;;;;;26.90;14.70;;;;;;;0.54;96.42;100492.09;4927240;29;20055;-41
2022/12/09 01:03:31;;;;;;;28.27;14.57;;;;;;;0.54;97.38;100500.25;4928611;29;20130;-40
2022/12/09 01:05:59;;;;;;;29.17;13.38;;;;;;;0.57;97.74;100509.75;4930154;29;20098;-44
2022/12/09 01:08:26;;;;;;;25.55;13.48;;;;;;;0.56;98.53;100506.22;4930360;29;20063;-42
2022/12/09 01:10:53;;;;;;;26.25;13.75;;;;;;;0.58;99.37;100509.47;4929076;29;20071;-40
2022/12/09 01:13:19;;;;;;;26.52;13.65;;;;;;;0.60;100.00;100510.03;4929682;29;20146;-41
2022/12/09 01:15:46;;;;;;;25.17;13.13;;;;;;;0.60;100.00;100493.69;4929405;29;20052;-40
2022/12/09 01:18:13;;;;;;;29.20;12.75;;;;;;;0.60;100.00;100492.84;4930079;29;20099;-40
2022/12/09 01:20:40;;;;;;;27.48;15.93;;;;;;;0.57;100.00;100486.06;4929879;29;20047;-40
2022/12/09 01:23:07;;;;;;;24.42;12.75;;;;;;;0.55;100.00;100488.28;4927243;29;20114;-47
2022/12/09 01:25:34;;;;;;;23.90;13.43;;;;;;;0.50;100.00;100499.19;4928781;29;20131;-39
2022/12/09 01:28:00;;;;;;;23.85;13.45;;;;;;;0.47;100.00;100494.31;4929748;29;20418;-40
2022/12/09 01:30:27;;;;;;;21.83;12.85;;;;;;;0.44;100.00;100485.91;4928074;29;20149;-39
2022/12/09 01:32:54;;;;;;;25.77;12.45;;;;;;;0.41;100.00;100476.41;4927740;29;20050;-40
2022/12/09 01:35:21;;;;;;;22.27;11.82;;;;;;;0.36;100.00;100484.59;4926351;29;20059;-39
2022/12/09 01:37:47;;;;;;;25.60;13.20;;;;;;;0.32;100.00;100477.28;4929060;29;20052;-39
2022/12/09 01:40:17;;;;;;;19.50;12.23;;;;;;;0.30;100.00;100477.56;4928868;29;20035;-40
2022/12/09 01:42:44;;;;;;;19.88;11.85;;;;;;;0.25;100.00;100480.31;4926443;29;20056;-39
2022/12/09 01:45:39;;;;;;;21.45;12.07;;;;;;;0.19;100.00;100473.28;4927248;29;20043;-40
2022/12/09 01:48:14;;;;;;;19.13;11.18;;;;;;;0.12;100.00;100480.97;4914096;29;20066;-39
2022/12/09 01:50:46;;;;;;;;;;;;;;;0.07;100.00;100481.00;4921232;29;20398;-39
2022/12/09 01:53:14;;;;;;;23.00;12.10;;;;;;;0.04;100.00;100478.84;4925910;29;19923;-47
2022/12/09 01:55:41;;;;;;;20.27;11.60;;;;;;;0.05;100.00;100477.75;4928706;29;20059;-39
2022/12/09 01:58:09;;;;;;;18.55;10.18;;;;;;;0.06;100.00;100473.91;4927365;29;20119;-39
2022/12/09 02:00:35;;;;;;;23.02;11.25;;;;;;;0.10;100.00;100487.78;4928133;29;20043;-39
2022/12/09 02:03:02;;;;;;;16.25;9.95;;;;;;;0.11;100.00;100487.50;4927248;29;20044;-39
2022/12/09 02:05:29;;;;;;;13.23;8.20;;;;;;;0.15;100.00;100477.69;4928589;29;20051;-40
2022/12/09 02:07:56;;;;;;;20.50;8.35;;;;;;;0.18;100.00;100477.13;4930350;29;20051;-41
2022/12/09 02:10:23;;;;;;;22.17;8.40;;;;;;;0.22;100.00;100482.78;4931021;29;20055;-41
2022/12/09 02:12:56;;;;;;;18.17;8.05;;;;;;;0.23;100.00;100479.81;4930707;29;20120;-40
2022/12/09 02:15:36;;;;;;;14.20;7.25;;;;;;;0.23;100.00;100481.72;4932171;29;20433;-39
2022/12/09 02:18:19;;;;;;;14.82;8.07;;;;;;;0.21;100.00;100483.91;4929630;29;20062;-39
2022/12/09 02:20:52;;;;;;;13.57;8.52;;;;;;;0.18;100.00;100488.00;4931579;29;20118;-39
2022/12/09 02:23:54;;;;;;;18.05;9.30;;;;;;;0.19;100.00;100499.69;4929575;29;20605;-39
2022/12/09 02:26:34;;;;;;;15.02;8.35;;;;;;;0.14;100.00;100503.25;4932402;29;20051;-39
2022/12/09 02:29:25;;;;;;;15.88;9.38;;;;;;;0.11;100.00;100503.81;4931621;29;20042;-39
2022/12/09 02:32:14;;;;;;;13.63;9.18;;;;;;;0.11;100.00;100503.81;4930794;29;20047;-40
2022/12/09 02:35:04;;;;;;;17.20;10.02;;;;;;;0.08;100.00;100500.88;4930064;29;20127;-45
2022/12/09 02:37:34;;;;;;;16.20;9.00;;;;;;;0.05;100.00;100504.16;4907209;29;20052;-41
2022/12/09 02:40:18;;;;;;;21.33;10.10;;;;;;;0.02;100.00;100500.09;4931672;29;20406;-39
2022/12/09 02:42:47;;;;;;;16.45;8.98;;;;;;;0.03;100.00;100490.03;4922715;29;20052;-40
2022/12/09 02:45:17;;;;;;;16.50;8.68;;;;;;;0.04;100.00;100491.63;4929938;29;20074;-39
2022/12/09 02:47:48;;;;;;;16.48;10.77;;;;;;;0.06;100.00;100500.31;4931395;29;20051;-40
2022/12/09 02:50:21;;;;;;;15.50;9.00;;;;;;;0.02;100.00;100505.53;4932279;29;20139;-41
2022/12/09 02:52:51;;;;;;;19.08;9.75;;;;;;;0.03;100.00;100501.69;4929840;29;20058;-39
2022/12/09 02:55:20;;;;;;;18.92;9.93;;;;;;;0.03;100.00;100496.25;4930280;29;20044;-39
2022/12/09 02:57:53;;;;;;;24.50;10.83;;;;;;;-0.01;100.00;100496.03;4931277;29;20051;-39
2022/12/09 03:02:58;;;;;;;18.63;10.48;;;;;;;-0.06;100.00;100487.06;4877030;23;20059;-43
2022/12/09 03:06:03;;;;;;;26.38;11.50;;;;;;;-0.09;100.00;100490.34;4931156;29;20051;-39
2022/12/09 03:08:38;;;;;;;19.05;10.25;;;;;;;-0.13;100.00;100478.38;4874094;29;20530;-41
2022/12/09 03:11:09;;;;;;;29.75;10.70;;;;;;;-0.20;100.00;100480.63;4922955;29;20039;-39
2022/12/09 03:14:02;;;;;;;15.68;9.43;;;;;;;-0.23;100.00;100482.00;4918147;29;20031;-39
2022/12/09 03:16:41;;;;;;;18.67;10.10;;;;;;;-0.25;100.00;100473.31;4929966;29;20052;-41
2022/12/09 03:19:29;;;;;;;17.02;9.73;;;;;;;-0.26;100.00;100487.16;4929122;29;20573;-39
2022/12/09 03:21:59;;;;;;;15.57;8.80;;;;;;;-0.29;100.00;100483.09;4921112;29;20087;-44
2022/12/09 03:24:32;;;;;;;15.75;9.50;;;;;;;-0.33;100.00;100481.22;4913874;29;20040;-41
2022/12/09 03:27:05;;;;;;;18.05;8.95;;;;;;;-0.34;100.00;100479.59;4914165;29;20044;-40
2022/12/09 03:29:36;;;;;;;15.68;8.70;;;;;;;-0.36;100.00;100466.28;4931134;29;20058;-41
2022/12/09 03:32:03;;;;;;;22.60;8.80;;;;;;;-0.37;100.00;100463.88;4910971;29;20397;-39
2022/12/09 03:34:36;;;;;;;15.73;9.70;;;;;;;-0.43;100.00;100465.78;4931081;29;20063;-39
2022/12/09 03:37:05;;;;;;;18.50;8.63;;;;;;;-0.48;100.00;100467.72;4927527;29;20401;-43
2022/12/09 03:39:36;;;;;;;18.75;9.85;;;;;;;-0.54;100.00;100468.81;4930218;29;20047;-39
2022/12/09 03:42:14;;;;;;;21.83;9.43;;;;;;;-0.55;100.00;100461.75;4917151;29;20052;-40
2022/12/09 03:44:50;;;;;;;21.55;9.75;;;;;;;-0.59;100.00;100464.22;4929067;29;20521;-43
2022/12/09 03:47:17;;;;;;;15.52;9.98;;;;;;;-0.59;100.00;100455.25;4929701;29;20050;-41
2022/12/09 03:49:45;;;;;;;14.50;9.13;;;;;;;-0.61;100.00;100450.09;4925680;29;20071;-41
2022/12/09 03:52:36;;;;;;;17.13;9.40;;;;;;;-0.66;100.00;100455.53;4928545;29;20047;-39
2022/12/09 03:55:22;;;;;;;18.60;9.90;;;;;;;-0.68;100.00;100452.28;4930107;29;20131;-39
2022/12/09 03:57:53;;;;;;;15.90;9.38;;;;;;;-0.72;100.00;100459.41;4929257;29;20048;-45
2022/12/09 04:00:20;;;;;;;19.27;9.27;;;;;;;-0.73;100.00;100450.41;4927827;29;20556;-43
2022/12/09 04:02:48;;;;;;;17.58;10.23;;;;;;;-0.76;100.00;100456.41;4932477;29;20059;-43
2022/12/09 04:05:15;;;;;;;24.67;10.93;;;;;;;-0.79;100.00;100456.97;4931985;29;20138;-45
2022/12/09 04:07:42;;;;;;;18.15;10.15;;;;;;;-0.84;100.00;100451.53;4932112;29;20051;-41
2022/12/09 04:10:10;;;;;;;16.90;9.60;;;;;;;-0.84;100.00;100453.44;4935807;29;20509;-40
2022/12/09 04:12:40;;;;;;;16.88;10.23;;;;;;;-0.84;100.00;100453.44;4935805;29;20397;-39
2022/12/09 04:15:10;;;;;;;17.52;8.82;;;;;;;-0.85;100.00;100452.63;4930312;29;20139;-39
2022/12/09 04:17:37;;;;;;;15.45;8.63;;;;;;;-0.86;100.00;100456.44;4933455;29;20051;-40
2022/12/09 04:20:04;;;;;;;18.38;9.73;;;;;;;-0.86;100.00;100447.47;4923247;29;20083;-40
2022/12/09 04:22:33;;;;;;;15.52;8.27;;;;;;;-0.88;100.00;100447.75;4938275;29;20157;-40
2022/12/09 04:24:59;;;;;;;15.32;9.23;;;;;;;-0.88;100.00;100453.19;4912493;29;20074;-39
2022/12/09 04:27:26;;;;;;;22.55;9.82;;;;;;;-0.89;100.00;100446.13;4918118;29;20039;-45
2022/12/09 04:29:53;;;;;;;19.70;8.68;;;;;;;-0.91;100.00;100447.50;4933088;29;20052;-40
2022/12/09 04:32:19;;;;;;;16.05;8.52;;;;;;;-0.95;100.00;100441.78;4935154;29;20126;-39
2022/12/09 04:34:46;;;;;;;15.20;9.52;;;;;;;-0.98;100.00;100447.78;4935006;29;20040;-42
2022/12/09 04:37:14;;;;;;;16.45;9.00;;;;;;;-0.99;100.00;100445.34;4929509;29;20035;-39
2022/12/09 04:39:40;;;;;;;13.55;8.32;;;;;;;-1.02;100.00;100445.91;4930378;29;20040;-43
2022/12/09 04:42:07;;;;;;;19.02;8.98;;;;;;;-1.03;100.00;100444.28;4935602;29;20075;-39
2022/12/09 04:44:34;;;;;;;19.67;9.88;;;;;;;-1.07;100.00;100441.28;4929888;29;20051;-43
2022/12/09 04:47:01;;;;;;;14.60;8.90;;;;;;;-1.08;100.00;100442.38;4930783;29;21073;-39
2022/12/09 04:49:30;;;;;;;15.63;9.85;;;;;;;-1.09;100.00;100439.94;4929989;29;20086;-39
2022/12/09 04:51:57;;;;;;;19.58;9.02;;;;;;;-1.09;100.00;100440.78;4928922;29;20047;-39
2022/12/09 04:54:24;;;;;;;14.95;8.88;;;;;;;-1.10;100.00;100438.31;4930164;29;20078;-40
2022/12/09 04:56:50;;;;;;;16.13;8.70;;;;;;;-1.15;100.00;100441.84;4930053;29;20047;-39
2022/12/09 04:59:17;;;;;;;15.45;9.27;;;;;;;-1.19;100.00;100440.78;4930600;29;20078;-39
2022/12/09 05:01:44;;;;;;;12.55;8.52;;;;;;;-1.23;100.00;100429.66;4929844;29;20063;-40
2022/12/09 05:04:12;;;;;;;18.30;8.88;;;;;;;-1.23;100.00;100429.66;4928863;29;20055;-46
2022/12/09 05:06:39;;;;;;;16.70;8.07;;;;;;;-1.23;100.00;100440.53;4929103;29;20094;-43
2022/12/09 05:09:11;;;;;;;15.75;7.88;;;;;;;-1.25;100.00;100431.03;4911751;29;20062;-41
2022/12/09 05:11:39;;;;;;;16.42;7.93;;;;;;;-1.27;100.00;100427.75;4929870;29;20052;-39
2022/12/09 05:14:06;;;;;;;14.13;7.72;;;;;;;-1.25;100.00;100439.16;4928744;29;20417;-41
2022/12/09 05:16:33;;;;;;;10.82;6.85;;;;;;;-1.25;100.00;100433.75;4928005;29;20059;-40
2022/12/09 05:19:00;;;;;;;20.65;7.70;;;;;;;-1.26;100.00;100424.78;4912337;29;20064;-40
2022/12/09 05:21:28;;;;;;;13.07;6.97;;;;;;;-1.28;100.00;100437.81;4924960;29;20044;-41
2022/12/09 05:23:55;;;;;;;11.75;6.60;;;;;;;-1.27;100.00;100434.00;4926673;29;20786;-40
2022/12/09 05:26:23;;;;;;;16.35;7.25;;;;;;;-1.26;100.00;100437.53;4928572;29;20138;-41
2022/12/09 05:28:50;;;;;;;15.23;6.57;;;;;;;-1.26;100.00;100432.91;4928470;29;20074;-40
2022/12/09 05:31:20;;;;;;;10.52;6.10;;;;;;;-1.23;100.00;100435.09;4928393;29;20056;-39
2022/12/09 05:33:49;;;;;;;17.23;7.03;;;;;;;-1.21;100.00;100432.09;4927587;29;20082;-40
2022/12/09 05:36:19;;;;;;;16.25;7.10;;;;;;;-1.23;100.00;100426.13;4927876;29;20679;-40
2022/12/09 05:38:47;;;;;;;13.07;6.65;;;;;;;-1.23;100.00;100424.22;4928239;29;20075;-43
2022/12/09 05:41:15;;;;;;;11.18;6.07;;;;;;;-1.24;100.00;100432.63;4928793;29;20151;-40
2022/12/09 05:43:42;;;;;;;13.68;5.93;;;;;;;-1.23;100.00;100426.13;4927971;29;20131;-40
2022/12/09 05:46:11;;;;;;;8.75;5.32;;;;;;;-1.21;100.00;100426.66;4928506;29;20115;-40
2022/12/09 05:48:39;;;;;;;10.25;5.25;;;;;;;-1.21;100.00;100423.94;4926716;29;20078;-40
2022/12/09 05:51:15;;;;;;;18.02;5.50;;;;;;;-1.22;100.00;100420.41;4929814;29;20039;-41
2022/12/09 05:53:42;;;;;;;10.60;5.95;;;;;;;-1.19;100.00;100429.91;4927928;29;20438;-41
2022/12/09 05:56:14;;;;;;;9.55;5.70;;;;;;;-1.19;100.00;100419.03;4928947;29;20465;-40
2022/12/09 05:58:41;;;;;;;8.18;4.20;;;;;;;-1.18;100.00;100414.44;4927565;29;20051;-49
2022/12/09 06:01:08;;;;;;;11.70;5.63;;;;;;;-1.18;100.00;100417.97;4927612;29;20050;-41
2022/12/09 06:03:36;;;;;;;9.68;4.80;;;;;;;-1.17;100.00;100416.06;4925146;29;20043;-41
2022/12/09 06:06:12;;;;;;;14.43;5.88;;;;;;;-1.17;100.00;100410.63;4928784;29;20130;-41
2022/12/09 06:08:40;;;;;;;11.77;4.88;;;;;;;-1.15;100.00;100413.88;4927756;29;20062;-41
2022/12/09 06:11:19;;;;;;;14.07;5.95;;;;;;;-1.15;100.00;100403.84;4929568;29;20059;-41
2022/12/09 06:13:48;;;;;;;14.25;4.85;;;;;;;-1.15;100.00;100414.69;4928624;29;20079;-41
2022/12/09 06:16:18;;;;;;;10.88;4.85;;;;;;;-1.14;100.00;100410.09;4929492;29;20489;-41
2022/12/09 06:18:46;;;;;;;10.63;4.90;;;;;;;-1.15;100.00;100403.84;4930024;29;20508;-40
2022/12/09 06:21:15;;;;;;;22.95;5.18;;;;;;;-1.14;100.00;100415.53;4929199;29;20098;-47
2022/12/09 06:23:42;;;;;;;20.38;5.65;;;;;;;-1.15;100.00;100411.97;4928696;29;20151;-39
2022/12/09 06:26:25;;;;;;;14.40;6.15;;;;;;;-1.15;100.00;100403.00;4912495;29;20052;-41
2022/12/09 06:28:52;;;;;;;;;;;;;;;-1.16;100.00;100402.19;4930060;29;20047;-41
2022/12/09 06:31:20;;;;;;;11.57;6.32;;;;;;;-1.18;100.00;100398.13;4928200;29;20411;-40
2022/12/09 06:33:48;;;;;;;12.38;5.95;;;;;;;-1.22;100.00;100397.88;4928399;29;20063;-41
2022/12/09 06:36:25;;;;;;;16.65;5.88;;;;;;;-1.23;100.00;100401.69;4929525;29;20044;-40
2022/12/09 06:38:53;;;;;;;10.52;5.40;;;;;;;-1.26;100.00;100407.66;4927543;29;20390;-40
2022/12/09 06:41:20;;;;;;;16.13;6.40;;;;;;;-1.26;100.00;100408.47;4925484;29;20067;-40
2022/12/09 06:43:47;;;;;;;13.82;6.13;;;;;;;-1.25;100.00;100406.59;4928505;29;20446;-40
2022/12/09 06:46:21;;;;;;;13.48;5.40;;;;;;;-1.25;100.00;100399.25;4925827;29;20075;-40
2022/12/09 06:48:49;;;;;;;12.07;6.38;;;;;;;-1.22;100.00;100400.59;4927823;29;20044;-40
2022/12/09 06:51:17;;;;;;;13.90;6.43;;;;;;;-1.22;100.00;100397.88;4927340;29;20036;-40
2022/12/09 06:53:44;;;;;;;12.43;5.95;;;;;;;-1.21;100.00;100399.50;4930132;29;20044;-40
2022/12/09 06:56:12;;;;;;;10.88;5.95;;;;;;;-1.20;100.00;100400.31;4930823;29;20053;-40
2022/12/09 06:58:41;;;;;;;15.70;6.45;;;;;;;-1.22;100.00;100404.09;4930722;29;20043;-42
2022/12/09 07:01:12;;;;;;;24.42;8.45;;;;;;;-1.23;100.00;100397.06;4929907;29;20044;-39
2022/12/09 07:03:41;;;;;;;14.18;7.30;;;;;;;-1.23;100.00;100404.41;4914204;29;20063;-40
2022/12/09 07:06:19;;;;;;;18.33;7.25;;;;;;;-1.25;100.00;100399.25;4922097;29;20056;-40
2022/12/09 07:08:46;;;;;;;16.67;8.27;;;;;;;-1.33;100.00;100410.69;4940098;29;20075;-46
2022/12/09 07:11:15;;;;;;;14.52;8.00;;;;;;;-1.39;100.00;100413.66;4935575;29;20059;-45
2022/12/09 07:13:42;;;;;;;14.25;7.82;;;;;;;-1.46;100.00;100418.56;4947427;29;20053;-40
2022/12/09 07:16:09;;;;;;;18.33;8.60;;;;;;;-1.51;100.00;100415.88;4918027;29;20372;-40
2022/12/09 07:18:36;;;;;;;21.58;8.20;;;;;;;-1.56;100.00;100415.88;4929920;29;20503;-47
2022/12/09 07:21:14;;;;;;;16.05;8.30;;;;;;;-1.62;100.00;100408.81;4930955;29;20669;-41
2022/12/09 07:23:42;;;;;;;20.23;8.32;;;;;;;-1.64;100.00;100406.38;4943964;29;20061;-41
2022/12/09 07:26:09;;;;;;;17.02;8.05;;;;;;;-1.64;100.00;100405.56;4936579;29;20047;-41
2022/12/09 07:28:38;;;;;;;22.23;9.10;;;;;;;-1.68;100.00;100404.47;4935311;29;20487;-39
2022/12/09 07:31:05;;;;;;;20.33;9.82;;;;;;;-1.67;100.00;100400.69;4936301;29;20371;-40
2022/12/09 07:33:33;;;;;;;22.70;9.43;;;;;;;-1.74;100.00;100400.13;4931837;29;20079;-40
2022/12/09 07:35:59;;;;;;;22.05;9.60;;;;;;;-1.77;100.00;100398.00;4912542;29;20070;-40
2022/12/09 07:38:26;;;;;;;21.83;9.45;;;;;;;-1.79;100.00;100398.25;4945856;29;20114;-42
2022/12/09 07:41:03;;;;;;;24.10;10.35;;;;;;;-1.80;100.00;100398.53;4929244;29;20052;-41
2022/12/09 07:43:34;;;;;;;26.65;11.20;;;;;;;-1.83;100.00;100407.22;4936991;29;20142;-40
2022/12/09 07:46:05;;;;;;;22.05;9.88;;;;;;;-1.85;100.00;100402.84;4930862;29;20074;-43
2022/12/09 07:48:33;;;;;;;23.17;9.70;;;;;;;-1.84;100.00;100400.97;4931883;29;20054;-43
2022/12/09 07:51:02;;;;;;;14.73;8.88;;;;;;;-1.89;100.00;100399.06;4930541;29;20474;-40
2022/12/09 07:53:29;;;;;;;21.50;9.70;;;;;;;-1.90;100.00;100408.28;4897837;29;20502;-48
2022/12/09 07:56:01;;;;;;;19.00;9.60;;;;;;;-1.92;100.00;100398.78;4931412;29;20261;-40
2022/12/09 07:58:29;;;;;;;13.45;8.77;;;;;;;-1.94;100.00;100395.53;4931539;29;20048;-40
2022/12/09 08:00:56;;;;;;;20.25;9.52;;;;;;;-1.95;100.00;100393.91;4929792;29;20071;-41
2022/12/09 08:03:22;;;;;;;19.15;8.80;;;;;;;-1.95;100.00;100397.44;4930543;29;20067;-40
2022/12/09 08:05:51;;;;;;;23.55;9.35;;;;;;;-1.99;100.00;100399.06;4930025;29;20402;-40
2022/12/09 08:08:19;;;;;;;20.77;9.60;;;;;;;-2.03;100.00;100397.97;4931022;29;20486;-42
2022/12/09 08:10:46;;;;;;;15.35;8.40;;;;;;;-2.05;100.00;100394.72;4929146;29;20043;-46
2022/12/09 08:13:14;;;;;;;23.23;9.32;;;;;;;-2.04;100.00;100399.06;4926574;29;20042;-40
2022/12/09 08:15:40;;;;;;;19.77;8.98;;;;;;;-2.04;100.00;100409.91;4930924;29;20044;-42
2022/12/09 08:18:08;;;;;;;25.17;10.40;;;;;;;-1.98;100.00;100397.16;4931509;29;20206;-40
2022/12/09 08:20:35;;;;;;;15.98;9.25;;;;;;;-1.94;100.00;100398.25;4930811;29;20040;-40
2022/12/09 08:23:04;;;;;;;19.55;9.27;;;;;;;-1.88;100.00;100403.41;4929606;29;20091;-40
2022/12/09 08:25:31;;;;;;;23.25;10.15;;;;;;;-1.88;100.00;100403.41;4931075;29;20410;-41
2022/12/09 08:27:58;;;;;;;22.52;9.75;;;;;;;-1.90;100.00;100405.56;4930641;29;20056;-40
2022/12/09 08:30:25;;;;;;;19.08;8.70;;;;;;;-1.96;100.00;100403.94;4925665;29;20044;-41
2022/12/09 08:32:53;;;;;;;18.85;9.27;;;;;;;-2.02;100.00;100399.63;4924648;29;20031;-44
2022/12/09 08:35:20;;;;;;;23.95;11.07;;;;;;;-2.03;100.00;100399.88;4929624;29;20493;-40
2022/12/09 08:37:47;;;;;;;23.42;9.43;;;;;;;-2.03;100.00;100392.56;4927959;29;20524;-39
2022/12/09 08:40:14;;;;;;;27.20;11.35;;;;;;;-2.07;100.00;100396.91;4927730;29;20055;-41
2022/12/09 08:42:41;;;;;;;22.77;9.65;;;;;;;-2.05;100.00;100393.91;4930471;29;20047;-40
2022/12/09 08:45:08;;;;;;;20.77;11.30;;;;;;;-2.06;100.00;100393.09;4925029;29;20059;-46
2022/12/09 08:47:35;;;;;;;22.00;9.43;;;;;;;-2.06;100.00;100397.69;4931609;29;20115;-41
2022/12/09 08:50:03;;;;;;;18.05;9.50;;;;;;;-2.06;100.00;100397.69;4931092;29;20142;-44
2022/12/09 08:52:31;;;;;;;24.60;10.13;;;;;;;-2.09;100.00;100393.63;4930839;29;20044;-41
2022/12/09 08:55:06;;;;;;;25.50;10.77;;;;;;;-2.09;100.00;100399.06;4928905;29;20576;-42
2022/12/09 08:57:33;;;;;;;22.60;11.32;;;;;;;-2.07;100.00;100394.19;4929152;29;20051;-42
2022/12/09 09:00:01;;;;;;;21.55;9.80;;;;;;;-2.08;100.00;100391.72;4929725;29;20075;-41
2022/12/09 09:02:27;;;;;;;21.65;8.77;;;;;;;-2.07;100.00;100390.66;4931275;29;20506;-41
2022/12/09 09:04:55;;;;;;;19.40;9.25;;;;;;;-2.08;100.00;100392.56;4931452;29;20107;-41
2022/12/09 09:07:23;;;;;;;19.63;11.23;;;;;;;-2.07;100.00;100396.09;4927473;29;20116;-42
2022/12/09 09:09:50;;;;;;;25.85;10.63;;;;;;;-2.06;100.00;100393.09;4930609;29;20043;-43
2022/12/09 09:12:17;;;;;;;22.67;10.35;;;;;;;-2.07;100.00;100391.47;4931827;29;20055;-41
2022/12/09 09:14:44;;;;;;;19.23;9.95;;;;;;;-2.06;100.00;100390.38;4916738;29;20063;-44
2022/12/09 09:17:12;;;;;;;20.70;11.07;;;;;;;-2.01;100.00;100392.28;4929148;29;20044;-40
2022/12/09 09:19:39;;;;;;;20.17;10.77;;;;;;;-1.99;100.00;100393.66;4932230;29;20058;-40
2022/12/09 09:22:07;;;;;;;23.80;9.93;;;;;;;-1.99;100.00;100388.22;4930076;29;20062;-40
2022/12/09 09:24:34;;;;;;;25.33;11.73;;;;;;;-1.94;100.00;100390.94;4931417;29;20390;-42
2022/12/09 09:27:01;;;;;;;25.67;11.68;;;;;;;-1.95;100.00;100394.72;4926945;29;20047;-50
2022/12/09 09:29:28;;;;;;;18.15;10.02;;;;;;;-1.96;100.00;100393.09;4927102;29;20139;-41
2022/12/09 09:31:56;;;;;;;26.75;12.25;;;;;;;-1.96;100.00;100386.88;4927335;29;20079;-42
2022/12/09 09:34:25;;;;;;;20.20;10.75;;;;;;;-1.94;100.00;100390.94;4916728;29;20050;-40
2022/12/09 09:36:54;;;;;;;23.88;11.75;;;;;;;-1.94;100.00;100390.13;4926543;29;20449;-40
2022/12/09 09:39:21;;;;;;;22.38;11.10;;;;;;;-1.94;100.00;100385.50;4931692;29;20047;-41
2022/12/09 09:41:56;;;;;;;29.40;13.02;;;;;;;-1.92;100.00;100388.75;4931809;29;20047;-40
2022/12/09 09:44:42;;;;;;;30.70;12.73;;;;;;;-1.88;100.00;100395.25;4930482;29;20040;-41
2022/12/09 09:47:24;;;;;;;33.63;13.00;;;;;;;-1.88;100.00;100399.91;4928393;29;20063;-40
2022/12/09 09:50:19;;;;;;;29.05;12.98;;;;;;;-1.87;100.00;100401.50;4931923;29;20326;-47
2022/12/09 09:52:48;;;;;;;34.58;17.02;;;;;;;-1.86;100.00;100393.09;4931609;29;20533;-40
2022/12/09 09:55:29;;;;;;;32.85;12.77;;;;;;;-1.85;100.00;100402.03;4931061;29;20647;-47
2022/12/09 09:58:17;;;;;;;24.02;11.30;;;;;;;-1.86;100.00;100406.66;4927942;29;20048;-42
2022/12/09 10:00:54;;;;;;;32.28;12.40;;;;;;;-1.83;100.00;100411.53;4929346;29;20138;-40
2022/12/09 10:03:35;;;;;;;27.27;12.15;;;;;;;-1.77;100.00;100400.69;4931219;29;20048;-41
2022/12/09 10:06:21;;;;;;;20.90;10.73;;;;;;;-1.74;100.00;100403.66;4930334;29;20056;-40
2022/12/09 10:09:33;;;;;;;24.10;11.25;;;;;;;-1.70;100.00;100395.81;4938211;29;20048;-41
2022/12/09 10:12:17;;;;;;;21.10;10.45;;;;;;;-1.74;100.00;100400.13;4928000;29;20051;-41
2022/12/09 10:14:51;;;;;;;25.75;11.10;;;;;;;-1.70;100.00;100393.91;4944334;29;20498;-44
2022/12/09 10:17:27;;;;;;;19.52;9.70;;;;;;;-1.67;100.00;100395.25;4931964;29;20047;-42
2022/12/09 10:20:04;;;;;;;23.20;9.55;;;;;;;-1.68;100.00;100396.34;4935582;29;20387;-41
2022/12/09 10:22:55;;;;;;;23.95;11.45;;;;;;;-1.64;100.00;100405.56;4939335;29;20039;-44
2022/12/09 10:25:28;;;;;;;32.42;11.90;;;;;;;-1.58;100.00;100396.31;4930274;29;20505;-44
2022/12/09 10:28:17;;;;;;;19.30;11.35;;;;;;;-1.58;100.00;100388.19;4935168;29;20155;-44
2022/12/09 10:30:45;;;;;;;23.92;10.50;;;;;;;-1.58;100.00;100399.03;4942597;29;20150;-46
2022/12/09 10:33:14;;;;;;;22.83;12.00;;;;;;;-1.63;100.00;100389.00;4938839;29;20052;-40
2022/12/09 10:35:42;;;;;;;28.50;12.43;;;;;;;-1.64;100.00;100383.88;4932311;29;20094;-44
2022/12/09 10:38:11;;;;;;;19.63;11.73;;;;;;;-1.63;100.00;100396.31;4926255;29;20401;-41
2022/12/09 10:40:44;;;;;;;23.02;11.05;;;;;;;-1.64;100.00;100390.06;4938229;29;20111;-41
2022/12/09 10:43:33;;;;;;;26.77;10.32;;;;;;;-1.62;100.00;100404.22;4937578;29;20090;-42
2022/12/09 10:46:09;;;;;;;28.00;10.80;;;;;;;-1.62;100.00;100401.50;4917789;29;20525;-41
2022/12/09 10:48:51;;;;;;;22.13;12.02;;;;;;;-1.62;100.00;100403.41;4934704;29;20048;-42
2022/12/09 10:51:26;;;;;;;21.55;11.07;;;;;;;-1.68;100.00;100396.34;4938892;29;20039;-43
2022/12/09 10:53:53;;;;;;;19.83;9.85;;;;;;;-1.69;100.00;100397.41;4939572;29;20070;-41
2022/12/09 10:56:29;;;;;;;29.75;11.88;;;;;;;-1.68;100.00;100394.44;4933785;29;20792;-47
2022/12/09 10:59:21;;;;;;;28.23;11.07;;;;;;;-1.70;100.00;100390.38;4932025;29;20048;-42
2022/12/09 11:01:55;;;;;;;26.63;11.35;;;;;;;-1.69;100.00;100397.41;4938559;29;20055;-41
2022/12/09 11:04:25;;;;;;;25.52;12.00;;;;;;;-1.68;100.00;100393.63;4941719;29;20062;-41
2022/12/09 11:06:55;;;;;;;22.60;12.00;;;;;;;-1.66;100.00;100386.00;4932844;29;20057;-40
2022/12/09 11:09:37;;;;;;;21.67;11.25;;;;;;;-1.66;100.00;100381.41;4941943;29;20082;-40
2022/12/09 11:12:26;;;;;;;26.92;10.95;;;;;;;-1.65;100.00;100383.03;4920231;29;20071;-40
2022/12/09 11:14:59;;;;;;;33.13;12.90;;;;;;;-1.58;100.00;100393.59;4914490;29;20094;-44
2022/12/09 11:17:32;;;;;;;24.35;12.25;;;;;;;-1.52;100.00;100382.47;4937340;29;20039;-44
2022/12/09 11:20:05;;;;;;;32.03;12.95;;;;;;;-1.47;100.00;100384.34;4935556;29;20056;-41
2022/12/09 11:22:42;;;;;;;23.90;11.60;;;;;;;-1.48;100.00;100378.09;4940799;29;20117;-43
2022/12/09 11:25:12;;;;;;;27.83;11.38;;;;;;;-1.45;100.00;100383.00;4935351;29;20054;-43
2022/12/09 11:27:46;;;;;;;27.83;12.23;;;;;;;-1.41;100.00;100385.97;4942310;29;20110;-49
2022/12/09 11:30:13;;;;;;;28.73;13.55;;;;;;;-1.40;100.00;100387.59;4937105;29;20098;-42